createdAt,value
2024-03-08T00:00:27.687Z,92.29
2024-03-08T00:01:26.444Z,92.54
2024-03-08T00:02:31.127Z,93.37
2024-03-08T00:03:26.500Z,93.69
2024-03-08T00:04:26.472Z,93.69
2024-03-08T00:05:26.461Z,93.84
2024-03-08T00:06:27.627Z,93.84
2024-03-08T00:07:26.367Z,94.04
2024-03-08T00:08:27.596Z,94.09
2024-03-08T00:09:26.331Z,94.40
2024-03-08T00:10:28.470Z,94.76
2024-03-08T00:11:26.399Z,95.38
2024-03-08T00:12:26.484Z,95.49
2024-03-08T00:13:26.336Z,95.74
2024-03-08T00:14:27.132Z,95.74
2024-03-08T00:15:26.264Z,96.16
2024-03-08T00:16:26.507Z,96.58
2024-03-08T00:17:26.306Z,97.14
2024-03-08T00:18:26.614Z,97.25
2024-03-08T00:19:26.266Z,96.94
2024-03-08T00:20:26.433Z,97.08
2024-03-08T00:21:26.224Z,97.50
2024-03-08T00:22:26.437Z,97.81
2024-03-08T00:23:26.182Z,98.13
2024-03-08T00:24:26.374Z,98.24
2024-03-08T00:25:26.144Z,98.38
2024-03-08T00:26:26.419Z,98.69
2024-03-08T00:27:26.164Z,99.11
2024-03-08T00:28:26.277Z,99.32
2024-03-08T00:29:26.141Z,99.11
2024-03-08T00:30:26.164Z,99.16
2024-03-08T00:31:26.074Z,99.16
2024-03-08T00:32:26.299Z,99.37
2024-03-08T00:33:26.201Z,99.31
2024-03-08T00:34:26.143Z,99.31
2024-03-08T00:35:26.159Z,99.52
2024-03-08T00:36:26.176Z,99.63
2024-03-08T00:37:25.993Z,99.77
2024-03-08T00:38:26.147Z,99.98
2024-03-08T00:39:26.001Z,99.99
2024-03-08T00:40:27.018Z,99.99
2024-03-08T00:41:25.982Z,99.99
2024-03-08T00:42:26.209Z,99.99
2024-03-08T00:43:25.940Z,99.99
2024-03-08T00:44:27.048Z,99.99
2024-03-08T00:45:25.912Z,99.99
2024-03-08T00:46:25.932Z,99.99
2024-03-08T00:47:25.965Z,99.99
2024-03-08T00:48:27.116Z,99.99
2024-03-08T00:49:25.913Z,99.99
2024-03-08T00:50:26.003Z,99.99
2024-03-08T00:51:25.832Z,99.99
2024-03-08T00:52:25.871Z,99.99
2024-03-08T00:53:25.911Z,99.99
2024-03-08T00:54:25.985Z,99.99
2024-03-08T00:55:25.821Z,99.99
2024-03-08T00:56:46.924Z,99.99
2024-03-08T00:57:25.725Z,99.99
2024-03-08T00:58:25.902Z,99.99
2024-03-08T00:59:25.763Z,99.99
2024-03-08T01:00:25.877Z,99.99
2024-03-08T01:01:25.695Z,99.99
2024-03-08T01:02:25.875Z,99.99
2024-03-08T01:03:25.670Z,99.99
2024-03-08T01:04:25.750Z,99.99
2024-03-08T01:05:25.787Z,99.99
2024-03-08T01:06:25.739Z,99.99
2024-03-08T01:07:25.607Z,99.99
2024-03-08T01:08:25.737Z,99.99
2024-03-08T01:09:25.584Z,99.99
2024-03-08T01:10:25.629Z,99.99
2024-03-08T01:11:25.669Z,99.99
2024-03-08T01:12:25.591Z,99.99
2024-03-08T01:13:25.529Z,99.99
2024-03-08T01:14:25.746Z,99.99
2024-03-08T01:15:25.499Z,99.99
2024-03-08T01:16:26.536Z,99.99
2024-03-08T01:17:25.566Z,99.99
2024-03-08T01:18:25.818Z,99.99
2024-03-08T01:19:25.817Z,99.99
2024-03-08T01:20:25.534Z,99.99
2024-03-08T01:21:25.429Z,99.99
2024-03-08T01:22:25.641Z,99.99
2024-03-08T01:23:25.423Z,99.99
2024-03-08T01:24:25.559Z,99.99
2024-03-08T01:25:25.387Z,99.99
2024-03-08T01:26:25.377Z,99.99
2024-03-08T01:27:25.335Z,99.99
2024-03-08T01:28:25.452Z,99.99
2024-03-08T01:29:25.322Z,99.99
2024-03-08T01:30:25.489Z,99.99
2024-03-08T01:31:25.289Z,99.99
2024-03-08T01:32:25.337Z,99.99
2024-03-08T01:33:25.757Z,99.99
2024-03-08T01:34:26.434Z,99.99
2024-03-08T01:35:25.238Z,99.99
2024-03-08T01:36:25.343Z,99.99
2024-03-08T01:37:25.317Z,99.99
2024-03-08T01:38:26.057Z,99.99
2024-03-08T01:39:25.247Z,99.99
2024-03-08T01:40:25.400Z,99.99
2024-03-08T01:41:25.252Z,99.99
2024-03-08T01:42:25.316Z,99.99
2024-03-08T01:43:25.214Z,99.99
2024-03-08T01:44:25.295Z,99.99
2024-03-08T01:45:25.216Z,99.99
2024-03-08T01:46:25.338Z,99.99
2024-03-08T01:47:25.420Z,99.99
2024-03-08T01:48:25.622Z,99.99
2024-03-08T01:49:25.100Z,99.99
2024-03-08T01:50:25.302Z,99.99
2024-03-08T01:51:25.261Z,99.99
2024-03-08T01:52:25.249Z,99.99
2024-03-08T01:53:25.066Z,99.99
2024-03-08T01:54:24.989Z,99.99
2024-03-08T01:55:25.256Z,99.99
2024-03-08T01:56:24.999Z,99.99
2024-03-08T01:57:25.170Z,99.99
2024-03-08T01:58:24.965Z,99.99
2024-03-08T01:59:25.000Z,99.99
2024-03-08T02:00:24.972Z,99.99
2024-03-08T02:01:25.366Z,99.99
2024-03-08T02:02:24.930Z,99.99
2024-03-08T02:03:25.078Z,99.99
2024-03-08T02:04:24.877Z,99.99
2024-03-08T02:06:23.773Z,99.99
2024-03-08T02:07:24.577Z,99.99
2024-03-08T02:08:24.499Z,99.99
2024-03-08T02:09:24.597Z,99.99
2024-03-08T02:10:24.471Z,99.99
2024-03-08T02:11:24.692Z,99.99
2024-03-08T02:12:24.532Z,99.99
2024-03-08T02:13:24.477Z,99.99
2024-03-08T02:14:24.490Z,99.99
2024-03-08T02:15:24.479Z,99.99
2024-03-08T02:16:24.415Z,99.99
2024-03-08T02:17:24.564Z,99.99
2024-03-08T02:18:24.678Z,99.99
2024-03-08T02:19:24.398Z,99.99
2024-03-08T02:20:24.390Z,99.99
2024-03-08T02:21:24.525Z,99.99
2024-03-08T02:22:25.019Z,99.99
2024-03-08T02:23:24.444Z,99.99
2024-03-08T02:24:24.314Z,99.99
2024-03-08T02:25:24.377Z,99.99
2024-03-08T02:26:24.299Z,99.99
2024-03-08T02:27:24.441Z,99.99
2024-03-08T02:28:24.244Z,99.99
2024-03-08T02:29:24.386Z,99.99
2024-03-08T02:30:24.248Z,99.99
2024-03-08T02:31:24.414Z,99.99
2024-03-08T02:32:24.195Z,99.99
2024-03-08T02:33:24.503Z,99.99
2024-03-08T02:34:24.185Z,99.99
2024-03-08T02:35:24.319Z,99.99
2024-03-08T02:36:24.239Z,99.99
2024-03-08T02:37:24.399Z,99.99
2024-03-08T02:38:24.109Z,99.99
2024-03-08T02:39:24.495Z,99.99
2024-03-08T02:40:24.071Z,99.99
2024-03-08T02:41:26.039Z,99.99
2024-03-08T02:42:24.076Z,99.99
2024-03-08T02:43:24.498Z,99.99
2024-03-08T02:44:24.023Z,99.99
2024-03-08T02:45:24.248Z,99.99
2024-03-08T02:46:23.999Z,99.99
2024-03-08T02:47:27.028Z,99.99
2024-03-08T02:48:24.431Z,99.99
2024-03-08T02:49:24.224Z,99.99
2024-03-08T02:50:23.945Z,99.99
2024-03-08T02:51:50.058Z,99.99
2024-03-08T02:52:23.952Z,99.99
2024-03-08T02:53:24.114Z,99.99
2024-03-08T02:54:23.929Z,99.99
2024-03-08T02:55:23.989Z,99.99
2024-03-08T02:56:23.910Z,99.99
2024-03-08T02:57:24.120Z,99.99
2024-03-08T02:58:23.986Z,99.99
2024-03-08T02:59:23.952Z,99.99
2024-03-08T03:00:23.847Z,99.99
2024-03-08T03:01:24.116Z,99.99
2024-03-08T03:02:23.817Z,99.99
2024-03-08T03:03:23.952Z,99.99
2024-03-08T03:04:23.865Z,99.99
2024-03-08T03:05:23.997Z,99.99
2024-03-08T03:06:24.050Z,99.99
2024-03-08T03:07:23.739Z,99.99
2024-03-08T03:08:24.003Z,99.99
2024-03-08T03:09:23.729Z,99.99
2024-03-08T03:10:23.854Z,99.99
2024-03-08T03:11:23.995Z,99.99
2024-03-08T03:12:23.719Z,99.99
2024-03-08T03:13:23.917Z,99.99
2024-03-08T03:14:23.979Z,99.99
2024-03-08T03:15:27.206Z,99.99
2024-03-08T03:16:23.660Z,99.99
2024-03-08T03:17:23.773Z,99.99
2024-03-08T03:18:23.661Z,99.99
2024-03-08T03:19:23.783Z,99.99
2024-03-08T03:20:23.631Z,99.99
2024-03-08T03:21:24.885Z,99.99
2024-03-08T03:22:23.576Z,99.99
2024-03-08T03:23:25.351Z,99.99
2024-03-08T03:24:23.566Z,99.99
2024-03-08T03:25:23.751Z,99.99
2024-03-08T03:26:23.552Z,99.99
2024-03-08T03:27:23.610Z,99.99
2024-03-08T03:28:23.543Z,99.99
2024-03-08T03:29:23.729Z,99.99
2024-03-08T03:30:23.539Z,99.99
2024-03-08T03:31:23.673Z,99.99
2024-03-08T03:32:23.479Z,99.99
2024-03-08T03:33:23.849Z,99.99
2024-03-08T03:34:23.465Z,99.99
2024-03-08T03:35:25.732Z,99.99
2024-03-08T03:36:23.476Z,99.99
2024-03-08T03:37:23.571Z,99.99
2024-03-08T03:38:23.424Z,99.99
2024-03-08T03:39:23.534Z,99.99
2024-03-08T03:40:23.367Z,99.99
2024-03-08T03:41:23.731Z,99.99
2024-03-08T03:42:23.324Z,99.99
2024-03-08T03:43:23.539Z,99.99
2024-03-08T03:44:23.285Z,99.99
2024-03-08T03:45:23.549Z,99.99
2024-03-08T03:46:23.304Z,99.99
2024-03-08T03:47:23.441Z,99.99
2024-03-08T03:48:23.320Z,99.99
2024-03-08T03:49:23.930Z,99.99
2024-03-08T03:50:23.229Z,99.99
2024-03-08T03:51:23.474Z,99.99
2024-03-08T03:52:23.213Z,99.99
2024-03-08T03:53:23.389Z,99.99
2024-03-08T03:54:23.237Z,99.99
2024-03-08T03:55:23.284Z,99.99
2024-03-08T03:56:23.154Z,99.99
2024-03-08T03:57:23.300Z,99.99
2024-03-08T03:58:23.169Z,99.99
2024-03-08T03:59:23.371Z,99.99
2024-03-08T04:00:23.137Z,99.99
2024-03-08T04:01:23.357Z,99.99
2024-03-08T04:02:23.099Z,99.99
2024-03-08T04:03:23.240Z,99.99
2024-03-08T04:04:23.072Z,99.99
2024-03-08T04:05:23.370Z,99.99
2024-03-08T04:06:23.130Z,99.99
2024-03-08T04:07:23.266Z,99.99
2024-03-08T04:08:23.014Z,99.99
2024-03-08T04:09:23.083Z,99.99
2024-03-08T04:10:23.118Z,99.99
2024-03-08T04:11:23.206Z,99.99
2024-03-08T04:12:23.010Z,99.99
2024-03-08T04:13:24.159Z,99.99
2024-03-08T04:14:22.944Z,99.99
2024-03-08T04:15:23.043Z,99.99
2024-03-08T04:16:22.921Z,99.99
2024-03-08T04:17:23.151Z,99.99
2024-03-08T04:18:22.992Z,99.99
2024-03-08T04:19:23.178Z,99.99
2024-03-08T04:20:23.188Z,99.99
2024-03-08T04:21:22.984Z,99.99
2024-03-08T04:22:22.846Z,99.99
2024-03-08T04:23:23.017Z,99.99
2024-03-08T04:24:22.950Z,99.99
2024-03-08T04:25:23.006Z,99.99
2024-03-08T04:26:22.924Z,99.99
2024-03-08T04:27:22.764Z,99.99
2024-03-08T04:28:22.931Z,99.99
2024-03-08T04:29:22.769Z,99.99
2024-03-08T04:30:23.143Z,99.99
2024-03-08T04:31:22.876Z,99.99
2024-03-08T04:32:22.735Z,99.99
2024-03-08T04:33:23.022Z,99.99
2024-03-08T04:34:22.720Z,99.99
2024-03-08T04:35:22.875Z,99.99
2024-03-08T04:36:22.666Z,99.99
2024-03-08T04:37:22.897Z,99.99
2024-03-08T04:38:22.632Z,99.99
2024-03-08T04:39:22.829Z,99.99
2024-03-08T04:40:22.634Z,99.99
2024-03-08T04:41:22.816Z,99.99
2024-03-08T04:42:22.662Z,99.99
2024-03-08T04:43:22.709Z,99.99
2024-03-08T04:44:22.614Z,99.99
2024-03-08T04:45:22.942Z,99.99
2024-03-08T04:46:22.595Z,99.99
2024-03-08T04:47:22.903Z,99.99
2024-03-08T04:48:22.623Z,99.99
2024-03-08T04:49:22.667Z,99.99
2024-03-08T04:50:22.514Z,99.99
2024-03-08T04:51:22.779Z,99.99
2024-03-08T04:52:22.448Z,99.99
2024-03-08T04:53:22.619Z,99.99
2024-03-08T04:54:22.452Z,99.99
2024-03-08T04:55:22.770Z,99.99
2024-03-08T04:56:22.414Z,99.99
2024-03-08T04:57:22.735Z,99.99
2024-03-08T04:58:22.394Z,99.99
2024-03-08T04:59:22.541Z,99.99
2024-03-08T05:00:22.432Z,99.99
2024-03-08T05:01:22.757Z,99.99
2024-03-08T05:02:22.346Z,99.99
2024-03-08T05:03:44.567Z,99.99
2024-03-08T05:04:22.339Z,99.99
2024-03-08T05:05:22.574Z,99.99
2024-03-08T05:06:22.268Z,99.99
2024-03-08T05:07:23.472Z,99.99
2024-03-08T05:08:22.289Z,99.99
2024-03-08T05:09:23.418Z,99.99
2024-03-08T05:10:22.230Z,99.99
2024-03-08T05:11:22.621Z,99.99
2024-03-08T05:12:22.262Z,99.99
2024-03-08T05:13:22.321Z,99.99
2024-03-08T05:14:22.188Z,99.99
2024-03-08T05:15:22.293Z,99.99
2024-03-08T05:16:22.138Z,99.99
2024-03-08T05:17:23.314Z,99.99
2024-03-08T05:18:22.307Z,99.99
2024-03-08T05:19:25.157Z,99.99
2024-03-08T05:20:22.124Z,99.99
2024-03-08T05:21:22.174Z,99.99
2024-03-08T05:22:22.061Z,99.99
2024-03-08T05:23:23.238Z,99.99
2024-03-08T05:24:22.127Z,99.98
2024-03-08T05:25:22.449Z,99.77
2024-03-08T05:26:43.267Z,99.77
2024-03-08T05:27:24.053Z,99.66
2024-03-08T05:28:24.089Z,99.56
2024-03-08T05:29:22.004Z,99.35
2024-03-08T05:30:23.311Z,99.25
2024-03-08T05:31:22.039Z,99.10
2024-03-08T05:32:23.179Z,98.68
2024-03-08T05:33:23.071Z,98.58
2024-03-08T05:34:22.176Z,98.68
2024-03-08T05:35:22.156Z,98.68
2024-03-08T05:36:21.937Z,98.68
2024-03-08T05:37:23.114Z,98.79
2024-03-08T05:38:21.907Z,98.89
2024-03-08T05:39:22.358Z,98.99
2024-03-08T05:40:23.531Z,98.79
2024-03-08T05:41:21.892Z,98.68
2024-03-08T05:42:22.056Z,98.68
2024-03-08T05:43:21.878Z,98.68
2024-03-08T05:44:22.126Z,98.58
2024-03-08T05:45:21.852Z,98.16
2024-03-08T05:46:21.945Z,98.16
2024-03-08T05:47:24.428Z,98.16
2024-03-08T05:48:23.181Z,98.37
2024-03-08T05:49:21.710Z,98.47
2024-03-08T05:50:21.776Z,98.26
2024-03-08T05:51:21.969Z,98.16
2024-03-08T05:52:21.737Z,98.16
2024-03-08T05:53:21.882Z,98.26
2024-03-08T05:54:23.919Z,97.70
2024-03-08T05:55:22.272Z,97.70
2024-03-08T05:56:21.697Z,97.28
2024-03-08T05:57:21.746Z,96.97
2024-03-08T05:58:21.700Z,97.07
2024-03-08T05:59:21.581Z,97.38
2024-03-08T06:00:21.756Z,97.07
2024-03-08T06:01:21.621Z,97.38
2024-03-08T06:02:22.824Z,97.59
2024-03-08T06:03:21.632Z,97.91
2024-03-08T06:04:21.739Z,98.01
2024-03-08T06:05:21.540Z,98.22
2024-03-08T06:06:21.678Z,98.32
2024-03-08T06:07:21.507Z,98.32
2024-03-08T06:08:21.892Z,98.32
2024-03-08T06:09:21.504Z,98.01
2024-03-08T06:10:21.595Z,97.70
2024-03-08T06:11:21.655Z,97.34
2024-03-08T06:12:21.788Z,97.34
2024-03-08T06:13:21.416Z,97.13
2024-03-08T06:14:21.633Z,97.03
2024-03-08T06:15:21.404Z,97.03
2024-03-08T06:16:21.432Z,96.92
2024-03-08T06:17:21.371Z,97.03
2024-03-08T06:18:21.562Z,97.13
2024-03-08T06:19:21.346Z,97.13
2024-03-08T06:20:21.481Z,96.71
2024-03-08T06:21:21.517Z,96.82
2024-03-08T06:22:21.492Z,97.03
2024-03-08T06:23:21.310Z,96.82
2024-03-08T06:24:21.568Z,96.61
2024-03-08T06:25:21.308Z,96.88
2024-03-08T06:26:21.514Z,96.88
2024-03-08T06:27:21.312Z,96.77
2024-03-08T06:28:21.377Z,96.67
2024-03-08T06:29:21.212Z,96.46
2024-03-08T06:30:21.385Z,96.46
2024-03-08T06:31:21.206Z,96.15
2024-03-08T06:32:21.357Z,96.36
2024-03-08T06:33:21.280Z,96.25
2024-03-08T06:34:21.309Z,96.25
2024-03-08T06:35:21.162Z,96.15
2024-03-08T06:36:21.300Z,95.62
2024-03-08T06:37:21.124Z,95.62
2024-03-08T06:38:21.270Z,95.37
2024-03-08T06:39:21.142Z,94.96
2024-03-08T06:40:21.187Z,95.27
2024-03-08T06:41:21.125Z,95.17
2024-03-08T06:42:21.297Z,94.96
2024-03-08T06:43:21.147Z,95.48
2024-03-08T06:44:21.214Z,95.68
2024-03-08T06:45:21.126Z,95.68
2024-03-08T06:46:21.209Z,95.33
2024-03-08T06:47:21.028Z,95.33
2024-03-08T06:48:21.170Z,95.12
2024-03-08T06:49:20.986Z,95.33
2024-03-08T06:50:21.119Z,95.43
2024-03-08T06:51:20.995Z,94.18
2024-03-08T06:52:21.086Z,94.29
2024-03-08T06:53:23.930Z,94.18
2024-03-08T06:54:20.940Z,94.49
2024-03-08T06:55:21.120Z,95.02
2024-03-08T06:56:20.924Z,94.87
2024-03-08T06:57:20.991Z,94.14
2024-03-08T06:58:20.838Z,93.52
2024-03-08T06:59:21.922Z,93.41
2024-03-08T07:00:27.466Z,93.62
2024-03-08T07:01:21.734Z,93.62
2024-03-08T07:02:20.806Z,94.04
2024-03-08T07:03:20.880Z,93.52
2024-03-08T07:04:20.773Z,93.10
2024-03-08T07:05:20.799Z,93.10
2024-03-08T07:06:20.810Z,92.79
2024-03-08T07:07:20.757Z,92.99
2024-03-08T07:08:20.739Z,93.83
2024-03-08T07:09:20.857Z,93.37
2024-03-08T07:10:20.718Z,92.74
2024-03-08T07:11:20.720Z,93.05
2024-03-08T07:12:20.693Z,93.05
2024-03-08T07:13:20.715Z,93.37
2024-03-08T07:14:20.763Z,92.64
2024-03-08T07:15:20.907Z,92.33
2024-03-08T07:16:20.632Z,92.54
2024-03-08T07:17:20.640Z,92.85
2024-03-08T07:18:20.830Z,93.27
2024-03-08T07:19:20.654Z,92.54
2024-03-08T07:20:20.597Z,92.22
2024-03-08T07:21:20.717Z,92.12
2024-03-08T07:22:20.524Z,91.91
2024-03-08T07:23:20.670Z,92.22
2024-03-08T07:24:20.630Z,92.18
2024-03-08T07:25:20.559Z,91.87
2024-03-08T07:26:20.568Z,91.87
2024-03-08T07:27:20.544Z,92.18
2024-03-08T07:28:20.463Z,92.18
2024-03-08T07:29:20.468Z,93.01
2024-03-08T07:30:20.637Z,92.91
2024-03-08T07:31:20.468Z,92.08
2024-03-08T07:32:20.425Z,91.25
2024-03-08T07:33:20.513Z,91.25
2024-03-08T07:34:20.409Z,91.46
2024-03-08T07:35:20.412Z,91.25
2024-03-08T07:36:20.425Z,91.87
2024-03-08T07:37:20.438Z,92.18
2024-03-08T07:38:20.328Z,91.77
2024-03-08T07:39:20.413Z,91.14
2024-03-08T07:40:21.929Z,91.56
2024-03-08T07:41:20.312Z,91.87
2024-03-08T07:42:20.277Z,91.87
2024-03-08T07:43:20.324Z,91.25
2024-03-08T07:44:20.298Z,91.04
2024-03-08T07:45:20.304Z,90.72
2024-03-08T07:46:20.258Z,91.04
2024-03-08T07:47:21.770Z,91.46
2024-03-08T07:48:20.266Z,91.56
2024-03-08T07:49:20.217Z,91.04
2024-03-08T07:50:20.227Z,91.41
2024-03-08T07:51:20.293Z,90.72
2024-03-08T07:52:20.164Z,90.16
2024-03-08T07:53:20.182Z,90.26
2024-03-08T07:54:20.215Z,89.75
2024-03-08T07:55:20.142Z,91.10
2024-03-08T07:56:20.109Z,91.00
2024-03-08T07:57:20.113Z,89.75
2024-03-08T07:58:20.164Z,90.85
2024-03-08T07:59:20.109Z,89.81
2024-03-08T08:00:20.081Z,90.33
2024-03-08T08:01:20.156Z,89.18
2024-03-08T08:02:20.121Z,89.70
2024-03-08T08:03:20.050Z,89.25
2024-03-08T08:04:20.098Z,88.62
2024-03-08T08:05:20.010Z,89.15
2024-03-08T08:06:20.021Z,88.77
2024-03-08T08:07:20.011Z,88.84
2024-03-08T08:08:19.969Z,89.15
2024-03-08T08:09:19.953Z,88.84
2024-03-08T08:10:19.994Z,88.42
2024-03-08T08:11:20.010Z,88.67
2024-03-08T08:12:19.977Z,88.98
2024-03-08T08:13:19.951Z,88.87
2024-03-08T08:14:19.979Z,88.98
2024-03-08T08:15:19.936Z,89.70
2024-03-08T08:16:20.009Z,88.87
2024-03-08T08:17:19.921Z,89.18
2024-03-08T08:18:19.862Z,89.08
2024-03-08T08:19:19.929Z,89.18
2024-03-08T08:20:19.891Z,88.77
2024-03-08T08:21:20.023Z,88.56
2024-03-08T08:22:19.841Z,88.62
2024-03-08T08:23:19.847Z,88.77
2024-03-08T08:24:19.835Z,89.08
2024-03-08T08:25:19.800Z,89.25
2024-03-08T08:26:19.743Z,89.46
2024-03-08T08:27:19.833Z,89.15
2024-03-08T08:28:19.890Z,88.73
2024-03-08T08:29:19.794Z,89.46
2024-03-08T08:30:19.746Z,88.42
2024-03-08T08:31:19.746Z,89.15
2024-03-08T08:32:19.662Z,89.31
2024-03-08T08:33:19.798Z,87.59
2024-03-08T08:34:19.696Z,87.59
2024-03-08T08:35:20.014Z,88.00
2024-03-08T08:36:19.668Z,88.42
2024-03-08T08:37:21.098Z,88.21
2024-03-08T08:38:19.631Z,86.44
2024-03-08T08:39:19.669Z,87.27
2024-03-08T08:40:19.722Z,88.07
2024-03-08T08:41:19.638Z,88.17
2024-03-08T08:42:19.601Z,87.96
2024-03-08T08:43:19.643Z,87.55
2024-03-08T08:44:19.705Z,87.55
2024-03-08T08:45:23.436Z,87.82
2024-03-08T08:46:21.161Z,88.34
2024-03-08T08:47:19.580Z,86.57
2024-03-08T08:48:19.491Z,86.78
2024-03-08T08:49:19.480Z,87.92
2024-03-08T08:50:19.451Z,87.71
2024-03-08T08:51:19.476Z,87.09
2024-03-08T08:52:19.482Z,85.74
2024-03-08T08:53:19.449Z,86.88
2024-03-08T08:54:19.393Z,86.47
2024-03-08T08:55:19.434Z,86.36
2024-03-08T08:56:19.348Z,86.88
2024-03-08T08:57:19.432Z,86.22
2024-03-08T08:58:19.428Z,86.54
2024-03-08T08:59:23.174Z,86.12
2024-03-08T09:00:19.300Z,85.77
2024-03-08T09:01:19.405Z,85.19
2024-03-08T09:02:19.498Z,86.29
2024-03-08T09:03:19.281Z,84.73
2024-03-08T09:04:19.292Z,85.56
2024-03-08T09:05:19.289Z,85.04
2024-03-08T09:06:19.259Z,85.56
2024-03-08T09:07:19.319Z,84.94
2024-03-08T09:08:19.235Z,85.04
2024-03-08T09:09:19.197Z,85.66
2024-03-08T09:10:19.257Z,86.49
2024-03-08T09:11:19.216Z,85.87
2024-03-08T09:12:19.244Z,86.91
2024-03-08T09:13:28.443Z,86.25
2024-03-08T09:14:19.155Z,85.52
2024-03-08T09:15:19.228Z,86.25
2024-03-08T09:16:19.237Z,86.15
2024-03-08T09:17:19.110Z,85.11
2024-03-08T09:18:19.132Z,84.38
2024-03-08T09:19:19.182Z,85.77
2024-03-08T09:20:19.104Z,85.56
2024-03-08T09:21:20.250Z,85.14
2024-03-08T09:22:19.053Z,85.14
2024-03-08T09:23:19.033Z,85.66
2024-03-08T09:24:19.016Z,84.73
2024-03-08T09:25:19.096Z,85.11
2024-03-08T09:26:25.879Z,84.38
2024-03-08T09:27:19.061Z,83.97
2024-03-08T09:28:19.051Z,83.97
2024-03-08T09:29:18.993Z,83.97
2024-03-08T09:30:19.083Z,84.03
2024-03-08T09:31:18.963Z,84.03
2024-03-08T09:32:18.967Z,83.68
2024-03-08T09:33:18.951Z,83.85
2024-03-08T09:34:22.840Z,82.09
2024-03-08T09:35:18.939Z,81.37
2024-03-08T09:36:18.955Z,83.06
2024-03-08T09:37:18.944Z,83.16
2024-03-08T09:38:18.899Z,82.95
2024-03-08T09:39:18.849Z,83.16
2024-03-08T09:40:18.865Z,82.86
2024-03-08T09:41:18.903Z,83.02
2024-03-08T09:42:18.815Z,83.54
2024-03-08T09:43:20.381Z,83.26
2024-03-08T09:44:18.738Z,82.65
2024-03-08T09:45:18.789Z,81.51
2024-03-08T09:46:18.736Z,82.95
2024-03-08T09:47:18.730Z,83.37
2024-03-08T09:48:18.706Z,83.26
2024-03-08T09:49:18.752Z,83.16
2024-03-08T09:50:19.523Z,82.23
2024-03-08T09:51:18.677Z,83.37
2024-03-08T09:52:18.660Z,82.75
2024-03-08T09:53:18.850Z,82.86
2024-03-08T09:54:23.280Z,82.65
2024-03-08T09:55:18.648Z,82.54
2024-03-08T09:56:18.624Z,82.44
2024-03-08T09:57:20.970Z,83.58
2024-03-08T09:58:18.815Z,83.23
2024-03-08T09:59:18.614Z,83.99
2024-03-08T10:00:18.649Z,83.95
2024-03-08T10:01:18.641Z,82.92
2024-03-08T10:02:18.640Z,81.99
2024-03-08T10:03:18.570Z,82.50
2024-03-08T10:04:18.637Z,83.23
2024-03-08T10:05:18.544Z,83.23
2024-03-08T10:06:18.578Z,83.71
2024-03-08T10:07:18.609Z,82.26
2024-03-08T10:08:18.516Z,80.57
2024-03-08T10:09:18.445Z,81.74
2024-03-08T10:10:18.500Z,81.91
2024-03-08T10:11:18.634Z,80.98
2024-03-08T10:12:18.385Z,81.29
2024-03-08T10:13:18.551Z,81.15
2024-03-08T10:14:19.577Z,80.84
2024-03-08T10:15:18.494Z,80.01
2024-03-08T10:16:18.432Z,80.43
2024-03-08T10:17:18.410Z,80.53
2024-03-08T10:18:18.363Z,82.35
2024-03-08T10:19:18.436Z,81.90
2024-03-08T10:20:18.476Z,78.80
2024-03-08T10:21:19.189Z,84.28
2024-03-08T10:22:18.300Z,80.25
2024-03-08T10:23:18.307Z,80.42
2024-03-08T10:24:18.249Z,78.05
2024-03-08T10:25:18.248Z,78.42
2024-03-08T10:26:18.196Z,78.28
2024-03-08T10:27:18.241Z,77.97
2024-03-08T10:28:18.195Z,78.69
2024-03-08T10:29:18.193Z,77.45
2024-03-08T10:30:18.209Z,77.08
2024-03-08T10:31:19.481Z,77.15
2024-03-08T10:32:18.182Z,76.73
2024-03-08T10:33:18.209Z,75.91
2024-03-08T10:34:18.146Z,77.45
2024-03-08T10:35:18.236Z,78.80
2024-03-08T10:36:18.157Z,78.08
2024-03-08T10:37:18.160Z,77.59
2024-03-08T10:38:18.108Z,78.14
2024-03-08T10:39:18.100Z,77.63
2024-03-08T10:40:18.193Z,77.94
2024-03-08T10:41:18.609Z,78.56
2024-03-08T10:42:19.248Z,78.11
2024-03-08T10:43:18.451Z,79.41
2024-03-08T10:44:18.159Z,78.08
2024-03-08T10:45:18.031Z,77.87
2024-03-08T10:46:24.371Z,78.45
2024-03-08T10:47:17.964Z,76.01
2024-03-08T10:48:18.041Z,77.15
2024-03-08T10:49:17.988Z,76.80
2024-03-08T10:50:18.026Z,77.25
2024-03-08T10:51:17.915Z,77.72
2024-03-08T10:52:18.046Z,77.17
2024-03-08T10:53:18.006Z,75.25
2024-03-08T10:54:17.855Z,75.49
2024-03-08T10:55:17.893Z,71.59
2024-03-08T10:56:17.857Z,67.67
2024-03-08T10:57:17.889Z,68.08
2024-03-08T10:58:17.952Z,69.27
2024-03-08T10:59:17.871Z,67.11
2024-03-08T11:00:17.856Z,70.22
2024-03-08T11:01:17.871Z,72.20
2024-03-08T11:02:17.934Z,71.31
2024-03-08T11:03:17.757Z,71.66
2024-03-08T11:04:17.808Z,71.17
2024-03-08T11:05:17.709Z,74.29
2024-03-08T11:06:17.853Z,71.93
2024-03-08T11:07:17.856Z,69.40
2024-03-08T11:08:17.692Z,70.39
2024-03-08T11:09:17.630Z,72.78
2024-03-08T11:10:17.685Z,70.59
2024-03-08T11:11:17.703Z,75.01
2024-03-08T11:12:17.653Z,74.63
2024-03-08T11:13:17.621Z,72.68
2024-03-08T11:14:17.885Z,72.92
2024-03-08T11:15:17.561Z,73.85
2024-03-08T11:16:17.652Z,73.78
2024-03-08T11:17:19.242Z,74.57
2024-03-08T11:18:17.559Z,72.61
2024-03-08T11:19:17.566Z,72.24
2024-03-08T11:20:17.610Z,71.14
2024-03-08T11:21:17.489Z,72.09
2024-03-08T11:22:17.546Z,76.73
2024-03-08T11:23:17.467Z,76.45
2024-03-08T11:24:17.518Z,71.66
2024-03-08T11:25:17.553Z,73.40
2024-03-08T11:26:17.454Z,76.25
2024-03-08T11:27:17.409Z,71.86
2024-03-08T11:28:17.593Z,71.89
2024-03-08T11:29:17.414Z,72.88
2024-03-08T11:30:19.010Z,72.99
2024-03-08T11:31:17.355Z,72.92
2024-03-08T11:32:17.364Z,74.26
2024-03-08T11:33:17.397Z,72.71
2024-03-08T11:34:17.461Z,72.44
2024-03-08T11:35:17.297Z,73.02
2024-03-08T11:36:17.304Z,72.81
2024-03-08T11:37:17.325Z,72.68
2024-03-08T11:38:17.285Z,75.15
2024-03-08T11:39:17.274Z,71.59
2024-03-08T11:40:17.415Z,70.36
2024-03-08T11:41:19.201Z,67.02
2024-03-08T11:42:17.227Z,69.74
2024-03-08T11:43:17.196Z,73.02
2024-03-08T11:44:17.337Z,72.00
2024-03-08T11:45:17.202Z,68.18
2024-03-08T11:46:30.125Z,68.32
2024-03-08T11:47:17.211Z,67.47
2024-03-08T11:48:17.381Z,64.23
2024-03-08T11:49:17.131Z,63.54
2024-03-08T11:50:17.236Z,67.54
2024-03-08T11:51:17.091Z,68.41
2024-03-08T11:52:17.303Z,66.57
2024-03-08T11:53:17.078Z,68.79
2024-03-08T11:54:17.122Z,65.22
2024-03-08T11:55:17.076Z,66.69
2024-03-08T11:56:17.259Z,65.26
2024-03-08T11:57:17.068Z,64.61
2024-03-08T11:58:17.123Z,64.39
2024-03-08T11:59:17.023Z,67.67
2024-03-08T12:00:17.173Z,65.52
2024-03-08T12:01:17.078Z,65.39
2024-03-08T12:02:17.118Z,65.45
2024-03-08T12:03:16.949Z,65.75
2024-03-08T12:04:17.034Z,67.19
2024-03-08T12:05:16.936Z,67.46
2024-03-08T12:06:17.033Z,69.65
2024-03-08T12:07:16.956Z,63.76
2024-03-08T12:08:17.088Z,65.26
2024-03-08T12:09:16.858Z,64.34
2024-03-08T12:10:16.982Z,62.40
2024-03-08T12:11:16.923Z,66.18
2024-03-08T12:12:17.932Z,65.37
2024-03-08T12:13:16.954Z,66.31
2024-03-08T12:14:16.917Z,65.05
2024-03-08T12:15:16.775Z,65.33
2024-03-08T12:16:17.005Z,64.30
2024-03-08T12:17:16.760Z,63.62
2024-03-08T12:18:16.886Z,67.47
2024-03-08T12:19:16.842Z,69.07
2024-03-08T12:20:16.794Z,65.60
2024-03-08T12:21:16.734Z,65.05
2024-03-08T12:22:16.984Z,67.27
2024-03-08T12:23:16.709Z,65.36
2024-03-08T12:24:16.823Z,65.53
2024-03-08T12:25:16.695Z,63.45
2024-03-08T12:26:16.851Z,66.01
2024-03-08T12:27:16.660Z,64.17
2024-03-08T12:28:17.006Z,64.58
2024-03-08T12:29:16.666Z,68.05
2024-03-08T12:30:16.650Z,63.76
2024-03-08T12:31:16.634Z,64.55
2024-03-08T12:32:16.679Z,68.33
2024-03-08T12:33:16.729Z,64.31
2024-03-08T12:34:16.718Z,63.44
2024-03-08T12:35:16.560Z,64.25
2024-03-08T12:36:16.646Z,60.66
2024-03-08T12:37:16.563Z,61.14
2024-03-08T12:38:16.767Z,62.36
2024-03-08T12:39:16.473Z,58.44
2024-03-08T12:40:17.831Z,60.57
2024-03-08T12:41:17.511Z,60.44
2024-03-08T12:42:16.523Z,60.91
2024-03-08T12:43:17.240Z,63.10
2024-03-08T12:44:16.477Z,66.88
2024-03-08T12:45:16.432Z,62.52
2024-03-08T12:46:16.469Z,64.87
2024-03-08T12:47:16.492Z,64.43
2024-03-08T12:48:16.406Z,61.50
2024-03-08T12:49:16.589Z,63.37
2024-03-08T12:50:16.371Z,63.82
2024-03-08T12:51:16.547Z,62.49
2024-03-08T12:52:17.576Z,61.32
2024-03-08T12:53:16.556Z,62.88